createdAt,value
2018-02-26T00:00:47.354Z,3.12
2018-02-26T00:03:17.222Z,3.28
2018-02-26T00:05:45.899Z,1.95
2018-02-26T00:08:14.558Z,1.02
2018-02-26T00:10:43.193Z,3.03
2018-02-26T00:13:11.890Z,2.80
2018-02-26T00:15:40.556Z,2.58
2018-02-26T00:18:09.205Z,3.92
2018-02-26T00:20:37.864Z,1.98
2018-02-26T00:23:07.265Z,2.50
2018-02-26T00:25:36.678Z,3.65
2018-02-26T00:28:06.152Z,2.30
2018-02-26T00:30:34.818Z,3.25
2018-02-26T00:33:03.577Z,3.20
2018-02-26T00:35:32.224Z,2.00
2018-02-26T00:38:01.731Z,3.58
2018-02-26T00:40:31.163Z,3.37
2018-02-26T00:42:59.616Z,5.07
2018-02-26T00:45:29.033Z,2.92
2018-02-26T00:47:57.664Z,4.15
2018-02-26T00:50:26.308Z,3.33
2018-02-26T00:52:54.968Z,4.10
2018-02-26T00:55:24.380Z,3.05
2018-02-26T00:57:53.832Z,2.53
2018-02-26T01:00:22.490Z,3.47
2018-02-26T01:02:51.137Z,4.05
2018-02-26T01:05:19.782Z,3.20
2018-02-26T01:07:48.968Z,4.70
2018-02-26T01:10:17.613Z,3.15
2018-02-26T01:12:47.027Z,2.70
2018-02-26T01:15:15.669Z,3.50
2018-02-26T01:17:44.312Z,3.30
2018-02-26T01:20:12.957Z,3.10
2018-02-26T01:22:41.608Z,4.28
2018-02-26T01:25:10.252Z,3.40
2018-02-26T01:27:38.930Z,3.22
2018-02-26T01:30:08.056Z,2.92
2018-02-26T01:32:36.702Z,3.50
2018-02-26T01:35:06.104Z,4.45
2018-02-26T01:37:35.512Z,6.10
2018-02-26T01:40:04.905Z,4.53
2018-02-26T01:42:34.325Z,5.00
2018-02-26T01:45:03.717Z,4.35
2018-02-26T01:47:33.128Z,2.47
2018-02-26T01:50:01.755Z,4.03
2018-02-26T01:52:30.727Z,5.90
2018-02-26T01:54:59.475Z,6.20
2018-02-26T01:57:28.883Z,5.00
2018-02-26T01:59:58.300Z,4.25
2018-02-26T02:02:26.932Z,4.78
2018-02-26T02:04:55.585Z,4.25
2018-02-26T02:07:24.215Z,4.50
2018-02-26T02:09:52.863Z,3.60
2018-02-26T02:12:21.512Z,4.72
2018-02-26T02:14:50.948Z,3.92
2018-02-26T02:17:19.569Z,4.60
2018-02-26T02:19:48.211Z,4.18
2018-02-26T02:22:16.754Z,4.25
2018-02-26T02:24:46.194Z,3.45
2018-02-26T02:27:14.836Z,2.90
2018-02-26T02:29:43.481Z,4.60
2018-02-26T02:32:12.109Z,4.50
2018-02-26T02:34:40.752Z,7.00
2018-02-26T02:37:09.383Z,5.00
2018-02-26T02:39:38.888Z,4.30
2018-02-26T02:42:07.708Z,4.57
2018-02-26T02:44:36.390Z,4.78
2018-02-26T02:47:05.798Z,4.97
2018-02-26T02:49:34.432Z,5.43
2018-02-26T02:52:03.271Z,6.12
2018-02-26T02:54:32.100Z,4.53
2018-02-26T02:57:00.745Z,5.00
2018-02-26T02:59:29.570Z,4.15
2018-02-26T03:01:58.220Z,7.95
2018-02-26T03:04:26.859Z,5.65
2018-02-26T03:06:55.509Z,4.80
2018-02-26T03:09:24.207Z,5.30
2018-02-26T03:11:52.860Z,5.72
2018-02-26T03:14:21.506Z,6.03
2018-02-26T03:16:50.917Z,5.60
2018-02-26T03:19:20.324Z,6.43
2018-02-26T03:21:48.976Z,6.12
2018-02-26T03:24:17.621Z,6.72
2018-02-26T03:26:46.276Z,8.80
2018-02-26T03:29:14.924Z,7.57
2018-02-26T03:31:43.585Z,4.62
2018-02-26T03:34:12.252Z,8.13
2018-02-26T03:36:40.563Z,8.05
2018-02-26T03:39:09.261Z,8.00
2018-02-26T03:41:37.923Z,8.43
2018-02-26T03:44:06.561Z,6.20
2018-02-26T03:46:35.194Z,6.32
2018-02-26T03:49:03.873Z,7.15
2018-02-26T03:51:33.318Z,5.50
2018-02-26T03:54:02.747Z,7.00
2018-02-26T03:56:31.451Z,7.35
2018-02-26T03:59:00.086Z,5.62
2018-02-26T04:01:29.509Z,8.02
2018-02-26T04:03:58.160Z,7.43
2018-02-26T04:06:27.604Z,4.78
2018-02-26T04:08:56.247Z,5.85
2018-02-26T04:11:24.704Z,7.03
2018-02-26T04:13:53.369Z,8.77
2018-02-26T04:16:22.017Z,4.75
2018-02-26T04:18:51.460Z,7.18
2018-02-26T04:21:19.765Z,8.45
2018-02-26T04:23:48.408Z,5.62
2018-02-26T04:26:17.068Z,6.80
2018-02-26T04:28:46.465Z,7.20
2018-02-26T04:31:15.924Z,6.60
2018-02-26T04:33:44.572Z,7.22
2018-02-26T04:36:13.236Z,6.62
2018-02-26T04:38:42.443Z,5.72
2018-02-26T04:41:11.855Z,6.43
2018-02-26T04:43:41.264Z,5.95
2018-02-26T04:46:09.958Z,6.87
2018-02-26T04:48:38.596Z,8.05
2018-02-26T04:51:07.248Z,6.15
2018-02-26T04:53:35.875Z,6.30
2018-02-26T04:56:04.518Z,6.45
2018-02-26T04:58:33.172Z,7.35
2018-02-26T05:01:01.818Z,9.20
2018-02-26T05:03:30.451Z,6.85
2018-02-26T05:05:59.132Z,8.05
2018-02-26T05:08:27.886Z,7.93
2018-02-26T05:10:57.331Z,7.60
2018-02-26T05:13:26.008Z,7.40
2018-02-26T05:15:54.654Z,7.65
2018-02-26T05:18:24.073Z,9.60
2018-02-26T05:20:53.475Z,7.28
2018-02-26T05:23:22.256Z,8.25
2018-02-26T05:25:51.657Z,6.93
2018-02-26T05:28:21.092Z,10.48
2018-02-26T05:30:49.756Z,6.75
2018-02-26T05:33:19.272Z,8.00
2018-02-26T05:35:47.931Z,6.90
2018-02-26T05:38:17.379Z,7.37
2018-02-26T05:40:46.184Z,7.68
2018-02-26T05:43:14.859Z,6.28
2018-02-26T05:45:43.556Z,8.48
2018-02-26T05:48:12.208Z,7.70
2018-02-26T05:50:40.870Z,10.98
2018-02-26T05:53:12.556Z,7.90
2018-02-26T05:55:41.198Z,9.20
2018-02-26T05:58:10.628Z,9.63
2018-02-26T06:00:44.627Z,7.32
2018-02-26T06:03:14.058Z,7.37
2018-02-26T06:05:42.710Z,6.35
2018-02-26T06:08:12.197Z,8.95
2018-02-26T06:10:41.712Z,9.88
2018-02-26T06:13:11.105Z,6.37
2018-02-26T06:15:39.768Z,6.75
2018-02-26T06:18:08.419Z,8.50
2018-02-26T06:20:37.156Z,7.78
2018-02-26T06:23:05.804Z,8.00
2018-02-26T06:25:34.132Z,7.30
2018-02-26T06:28:03.597Z,7.03
2018-02-26T06:30:32.260Z,7.15
2018-02-26T06:33:00.906Z,7.57
2018-02-26T06:35:30.328Z,9.07
2018-02-26T06:37:59.007Z,8.93
2018-02-26T06:40:27.662Z,7.65
2018-02-26T06:42:56.377Z,7.55
2018-02-26T06:45:25.073Z,7.68
2018-02-26T06:47:53.720Z,8.23
2018-02-26T06:50:22.397Z,6.93
2018-02-26T06:52:51.063Z,9.55
2018-02-26T06:55:19.705Z,7.97
2018-02-26T06:57:48.390Z,8.25
2018-02-26T07:00:17.036Z,8.18
2018-02-26T07:02:45.694Z,9.20
2018-02-26T07:05:14.374Z,7.70
2018-02-26T07:07:43.041Z,9.65
2018-02-26T07:10:11.709Z,10.55
2018-02-26T07:12:40.377Z,10.63
2018-02-26T07:15:09.816Z,11.88
2018-02-26T07:17:38.544Z,9.45
2018-02-26T07:20:06.685Z,9.15
2018-02-26T07:22:35.343Z,8.05
2018-02-26T07:25:04.003Z,8.77
2018-02-26T07:27:33.492Z,8.23
2018-02-26T07:30:02.156Z,7.30
2018-02-26T07:32:30.828Z,10.82
2018-02-26T07:34:59.476Z,12.80
2018-02-26T07:37:28.917Z,9.75
2018-02-26T07:39:57.590Z,12.37
2018-02-26T07:42:26.239Z,8.85
2018-02-26T07:44:55.659Z,10.02
2018-02-26T07:47:24.311Z,11.10
2018-02-26T07:49:52.993Z,8.85
2018-02-26T07:52:21.681Z,7.75
2018-02-26T07:54:50.336Z,8.32
2018-02-26T07:57:18.975Z,9.98
2018-02-26T07:59:48.405Z,10.02
2018-02-26T08:02:17.291Z,9.95
2018-02-26T08:04:45.944Z,8.02
2018-02-26T08:07:15.347Z,8.48
2018-02-26T08:09:44.780Z,11.10
2018-02-26T08:12:13.536Z,7.07
2018-02-26T08:14:43.043Z,9.95
2018-02-26T08:17:12.630Z,8.00
2018-02-26T08:19:41.302Z,7.80
2018-02-26T08:22:09.955Z,8.82
2018-02-26T08:24:38.613Z,6.93
2018-02-26T08:27:08.037Z,6.45
2018-02-26T08:29:36.688Z,9.35
2018-02-26T08:32:06.132Z,8.68
2018-02-26T08:34:34.771Z,7.40
2018-02-26T08:37:04.239Z,8.48
2018-02-26T08:39:32.887Z,9.48
2018-02-26T08:42:01.585Z,6.72
2018-02-26T08:44:30.234Z,6.32
2018-02-26T08:46:59.671Z,5.28
2018-02-26T08:49:28.363Z,6.25
2018-02-26T08:51:57.959Z,11.68
2018-02-26T08:54:26.623Z,11.20
2018-02-26T08:56:56.044Z,10.88
2018-02-26T08:59:24.681Z,9.52
2018-02-26T09:01:53.365Z,5.97
2018-02-26T09:04:22.015Z,6.00
2018-02-26T09:06:50.669Z,6.72
2018-02-26T09:09:19.444Z,6.60
2018-02-26T09:11:48.863Z,7.55
2018-02-26T09:14:17.507Z,6.25
2018-02-26T09:16:46.153Z,7.97
2018-02-26T09:19:14.876Z,7.53
2018-02-26T09:21:43.501Z,5.40
2018-02-26T09:24:12.164Z,6.57
2018-02-26T09:26:41.576Z,8.15
2018-02-26T09:29:10.225Z,4.78
2018-02-26T09:31:38.896Z,6.53
2018-02-26T09:34:07.556Z,6.80
2018-02-26T09:36:36.220Z,9.75
2018-02-26T09:39:05.307Z,8.23
2018-02-26T09:41:33.932Z,5.07
2018-02-26T09:44:02.673Z,6.40
2018-02-26T09:46:31.362Z,7.25
2018-02-26T09:49:00.787Z,8.45
2018-02-26T09:51:29.431Z,10.40
2018-02-26T09:53:58.080Z,6.55
2018-02-26T09:56:26.713Z,4.20
2018-02-26T09:58:55.363Z,6.35
2018-02-26T10:01:24.020Z,7.60
2018-02-26T10:03:52.673Z,8.82
2018-02-26T10:06:22.084Z,9.82
2018-02-26T10:08:51.490Z,3.45
2018-02-26T10:11:20.909Z,6.37
2018-02-26T10:13:49.558Z,6.80
2018-02-26T10:16:18.232Z,4.12
2018-02-26T10:18:46.871Z,6.40
2018-02-26T10:21:15.529Z,6.25
2018-02-26T10:23:44.168Z,3.75
2018-02-26T10:26:12.825Z,4.95
2018-02-26T10:28:41.959Z,6.78
2018-02-26T10:31:10.447Z,5.05
2018-02-26T10:33:38.792Z,7.28
2018-02-26T10:36:07.468Z,6.97
2018-02-26T10:38:36.113Z,5.57
2018-02-26T10:41:05.528Z,6.35
2018-02-26T10:43:34.216Z,10.00
2018-02-26T10:46:02.913Z,7.60
2018-02-26T10:48:31.632Z,5.20
2018-02-26T10:51:00.322Z,9.40
2018-02-26T10:53:29.018Z,6.28
2018-02-26T10:55:57.660Z,6.53
2018-02-26T10:58:26.343Z,8.82
2018-02-26T11:00:55.128Z,4.97
2018-02-26T11:03:23.819Z,4.80
2018-02-26T11:05:52.451Z,3.75
2018-02-26T11:08:21.112Z,4.53
2018-02-26T11:10:49.744Z,3.15
2018-02-26T11:13:19.154Z,3.80
2018-02-26T11:15:48.551Z,3.03
2018-02-26T11:18:18.184Z,4.40
2018-02-26T11:20:46.812Z,3.87
2018-02-26T11:23:16.257Z,2.95
2018-02-26T11:25:44.961Z,7.30
2018-02-26T11:28:13.611Z,3.92
2018-02-26T11:30:43.053Z,3.60
2018-02-26T11:33:11.715Z,5.80
2018-02-26T11:35:40.478Z,4.95
2018-02-26T11:38:09.896Z,7.45
2018-02-26T11:40:38.548Z,4.20
2018-02-26T11:43:07.222Z,7.97
2018-02-26T11:45:35.891Z,7.47
2018-02-26T11:48:04.396Z,4.03
2018-02-26T11:50:33.095Z,6.87
2018-02-26T11:53:01.760Z,6.97
2018-02-26T11:55:30.428Z,6.10
2018-02-26T11:57:59.120Z,7.78
2018-02-26T12:00:27.795Z,8.85
2018-02-26T12:02:56.448Z,7.18
2018-02-26T12:05:25.135Z,7.25
2018-02-26T12:07:54.743Z,4.80
2018-02-26T12:10:23.420Z,7.90
2018-02-26T12:12:52.811Z,7.50
2018-02-26T12:15:22.228Z,6.62
2018-02-26T12:17:51.651Z,6.82
2018-02-26T12:20:20.140Z,7.25
2018-02-26T12:22:48.974Z,5.05
2018-02-26T12:25:17.673Z,7.32
2018-02-26T12:27:47.107Z,6.50
2018-02-26T12:30:15.777Z,7.28
2018-02-26T12:32:44.424Z,6.60
2018-02-26T12:35:13.070Z,6.45
2018-02-26T12:37:41.760Z,6.25
2018-02-26T12:40:11.312Z,5.03
2018-02-26T12:42:40.724Z,4.70
2018-02-26T12:45:10.136Z,3.60
2018-02-26T12:47:39.623Z,4.78
2018-02-26T12:50:08.838Z,5.25
2018-02-26T12:52:37.478Z,4.72
2018-02-26T12:55:06.112Z,3.03
2018-02-26T12:57:34.761Z,2.12
2018-02-26T13:00:03.410Z,2.90
2018-02-26T13:02:32.066Z,4.20
2018-02-26T13:05:00.696Z,5.45
2018-02-26T13:07:29.346Z,5.97
2018-02-26T13:09:57.975Z,4.43
2018-02-26T13:12:26.620Z,6.37
2018-02-26T13:14:55.272Z,6.45
2018-02-26T13:17:25.152Z,5.55
2018-02-26T13:19:53.800Z,4.32
2018-02-26T13:22:22.449Z,4.20
2018-02-26T13:24:51.857Z,4.25
2018-02-26T13:27:21.272Z,3.20
2018-02-26T13:29:49.956Z,3.90
2018-02-26T13:32:18.721Z,4.07
2018-02-26T13:34:49.118Z,3.90
2018-02-26T13:37:17.780Z,2.72
2018-02-26T13:39:46.479Z,4.18
2018-02-26T13:42:15.113Z,4.62
2018-02-26T13:44:44.535Z,4.97
2018-02-26T13:47:13.184Z,4.00
2018-02-26T13:49:41.847Z,4.50
2018-02-26T13:52:10.559Z,6.72
2018-02-26T13:54:39.306Z,6.82
2018-02-26T13:57:08.021Z,8.00
2018-02-26T13:59:37.128Z,6.75
2018-02-26T14:02:05.810Z,6.40
2018-02-26T14:04:34.451Z,4.05
2018-02-26T14:07:03.141Z,5.00
2018-02-26T14:09:31.773Z,4.47
2018-02-26T14:12:00.427Z,4.80
2018-02-26T14:14:29.089Z,4.05
2018-02-26T14:16:57.732Z,6.87
2018-02-26T14:19:27.148Z,2.95
2018-02-26T14:21:55.839Z,6.18
2018-02-26T14:24:26.413Z,4.60
2018-02-26T14:26:55.255Z,3.80
2018-02-26T14:29:23.889Z,5.80
2018-02-26T14:31:52.581Z,6.93
2018-02-26T14:34:21.334Z,4.40
2018-02-26T14:36:50.098Z,7.75
2018-02-26T14:39:18.744Z,5.35
2018-02-26T14:41:47.393Z,6.75
2018-02-26T14:44:16.029Z,4.10
2018-02-26T14:46:45.267Z,6.82
2018-02-26T14:49:14.010Z,7.40
2018-02-26T14:51:42.629Z,4.82
2018-02-26T14:54:11.266Z,7.65
2018-02-26T14:56:39.941Z,6.47
2018-02-26T14:59:08.578Z,7.10
2018-02-26T15:01:37.240Z,6.15
2018-02-26T15:04:07.416Z,8.02
2018-02-26T15:06:36.083Z,6.78
2018-02-26T15:09:04.104Z,5.55
2018-02-26T15:11:33.531Z,4.90
2018-02-26T15:14:02.188Z,4.95
2018-02-26T15:16:30.824Z,3.42
2018-02-26T15:18:59.491Z,4.62
2018-02-26T15:21:28.189Z,4.43
2018-02-26T15:23:56.834Z,3.25
2018-02-26T15:26:26.337Z,3.55
2018-02-26T15:28:54.981Z,4.37
2018-02-26T15:31:23.620Z,4.87
2018-02-26T15:33:52.320Z,4.55
2018-02-26T15:36:20.985Z,3.25
2018-02-26T15:38:50.429Z,5.18
2018-02-26T15:41:19.136Z,2.75
2018-02-26T15:43:47.827Z,2.00
2018-02-26T15:46:16.484Z,1.60
2018-02-26T15:48:46.159Z,2.22
2018-02-26T15:51:15.586Z,2.80
2018-02-26T15:53:44.224Z,5.30
2018-02-26T15:56:12.968Z,4.57
2018-02-26T15:58:41.610Z,4.35
2018-02-26T16:01:11.035Z,2.47
2018-02-26T16:03:39.760Z,1.55
2018-02-26T16:06:08.077Z,2.62
2018-02-26T16:08:37.490Z,2.47
2018-02-26T16:11:06.208Z,2.95
2018-02-26T16:13:34.931Z,3.25
2018-02-26T16:16:03.573Z,1.70
2018-02-26T16:18:32.261Z,3.15
2018-02-26T16:21:00.898Z,2.25
2018-02-26T16:23:29.965Z,3.35
2018-02-26T16:25:58.624Z,2.85
2018-02-26T16:28:27.263Z,2.60
2018-02-26T16:30:55.965Z,3.20
2018-02-26T16:33:24.661Z,2.95
2018-02-26T16:35:53.320Z,1.73
2018-02-26T16:38:22.788Z,2.65
2018-02-26T16:40:51.481Z,1.40
2018-02-26T16:43:20.107Z,4.95
2018-02-26T16:45:49.592Z,4.40
2018-02-26T16:48:19.029Z,3.50
2018-02-26T16:50:47.664Z,4.15
2018-02-26T16:53:16.383Z,1.58
2018-02-26T16:55:45.112Z,3.70
2018-02-26T16:58:13.775Z,4.15
2018-02-26T17:00:44.200Z,2.75
2018-02-26T17:03:12.957Z,4.32
2018-02-26T17:05:41.678Z,3.00
2018-02-26T17:08:10.343Z,3.25
2018-02-26T17:10:39.312Z,2.85
2018-02-26T17:13:08.816Z,3.40
2018-02-26T17:15:37.450Z,2.12
2018-02-26T17:18:06.120Z,3.47
2018-02-26T17:20:34.752Z,2.17
2018-02-26T17:23:03.398Z,3.30
2018-02-26T17:25:32.182Z,3.55
2018-02-26T17:28:00.846Z,2.75
2018-02-26T17:30:29.543Z,3.30
2018-02-26T17:32:58.203Z,3.08
2018-02-26T17:35:27.606Z,3.85
2018-02-26T17:37:57.055Z,2.67
2018-02-26T17:40:25.824Z,1.30
2018-02-26T17:42:54.488Z,1.87
2018-02-26T17:45:25.378Z,2.60
2018-02-26T17:47:54.013Z,3.65
2018-02-26T17:50:22.658Z,2.95
2018-02-26T17:52:51.413Z,3.15
2018-02-26T17:55:20.131Z,3.60
2018-02-26T17:57:48.634Z,3.85
2018-02-26T18:00:18.066Z,2.95
2018-02-26T18:02:46.767Z,3.50
2018-02-26T18:05:15.420Z,3.87
2018-02-26T18:07:44.125Z,3.50
2018-02-26T18:10:12.776Z,2.40
2018-02-26T18:12:42.186Z,2.90
2018-02-26T18:15:10.874Z,3.28
2018-02-26T18:17:39.709Z,3.97
2018-02-26T18:20:08.165Z,3.17
2018-02-26T18:22:36.829Z,3.87
2018-02-26T18:25:06.258Z,3.85
2018-02-26T18:27:34.934Z,3.50
2018-02-26T18:59:45.175Z,4.05
2018-02-26T19:02:14.669Z,4.40
2018-02-26T19:04:44.170Z,3.42
2018-02-26T19:07:12.837Z,4.35
2018-02-26T19:09:41.505Z,3.42
2018-02-26T19:12:10.147Z,5.32
2018-02-26T19:14:39.699Z,5.22
2018-02-26T19:17:08.405Z,4.50
2018-02-26T19:19:37.055Z,4.03
2018-02-26T19:22:05.709Z,3.95
2018-02-26T19:24:34.352Z,2.47
2018-02-26T19:27:02.805Z,3.03
2018-02-26T19:29:31.545Z,2.90
2018-02-26T19:32:00.962Z,2.92
2018-02-26T19:34:29.729Z,2.75
2018-02-26T19:36:59.176Z,3.50
2018-02-26T19:39:27.851Z,5.60
2018-02-26T19:41:56.695Z,2.80
2018-02-26T19:44:25.362Z,3.75
2018-02-26T19:46:54.010Z,4.57
2018-02-26T19:49:22.661Z,4.47
2018-02-26T19:51:52.104Z,4.00
2018-02-26T19:54:20.737Z,4.35
2018-02-26T19:56:49.395Z,3.75
2018-02-26T19:59:18.468Z,3.47
2018-02-26T20:01:47.157Z,5.03
2018-02-26T20:04:15.800Z,4.37
2018-02-26T20:06:45.220Z,4.22
2018-02-26T20:09:13.858Z,4.72
2018-02-26T20:11:42.539Z,4.50
2018-02-26T20:14:11.213Z,5.57
2018-02-26T20:16:39.889Z,3.70
2018-02-26T20:19:08.572Z,4.97
2018-02-26T20:21:37.274Z,5.20
2018-02-26T20:24:05.965Z,5.28
2018-02-26T20:26:34.614Z,6.75
2018-02-26T20:29:03.284Z,5.97
2018-02-26T20:31:31.976Z,5.25
2018-02-26T20:34:00.735Z,5.60
2018-02-26T20:36:30.193Z,7.70
2018-02-26T20:38:58.859Z,5.32
2018-02-26T20:41:27.544Z,4.90
2018-02-26T20:43:56.267Z,5.18
2018-02-26T20:46:25.115Z,5.55
2018-02-26T20:48:53.749Z,5.65
2018-02-26T20:51:22.600Z,5.47
2018-02-26T20:53:51.245Z,3.95
2018-02-26T20:56:19.922Z,5.32
2018-02-26T20:58:49.373Z,6.37
2018-02-26T21:01:18.087Z,4.50
2018-02-26T21:03:46.882Z,5.32
2018-02-26T21:06:15.618Z,5.95
2018-02-26T21:08:44.306Z,6.50
2018-02-26T21:11:12.942Z,5.62
2018-02-26T21:13:41.650Z,4.47
2018-02-26T21:16:10.305Z,5.65
2018-02-26T21:18:38.956Z,3.33
2018-02-26T21:21:07.608Z,5.72
2018-02-26T21:23:37.012Z,5.90
2018-02-26T21:26:06.098Z,5.82
2018-02-26T21:28:34.790Z,4.65
2018-02-26T21:31:03.425Z,5.30
2018-02-26T21:33:32.180Z,7.22
2018-02-26T21:36:01.179Z,6.90
2018-02-26T21:38:29.971Z,6.35
2018-02-26T21:40:58.599Z,6.75
2018-02-26T21:43:27.259Z,7.97
2018-02-26T21:45:55.900Z,6.75
2018-02-26T21:48:25.487Z,5.40
2018-02-26T21:50:54.272Z,7.45
2018-02-26T21:53:22.749Z,6.15
2018-02-26T21:55:51.391Z,7.80
2018-02-26T21:58:20.152Z,6.05
2018-02-26T22:00:48.803Z,6.75
2018-02-26T22:03:19.026Z,8.65
2018-02-26T22:05:47.688Z,8.05
2018-02-26T22:08:16.365Z,7.85
2018-02-26T22:10:45.019Z,6.68
2018-02-26T22:13:13.675Z,8.15
2018-02-26T22:15:42.328Z,8.93
2018-02-26T22:18:10.969Z,8.38
2018-02-26T22:20:39.632Z,8.80
2018-02-26T22:23:09.031Z,7.93
2018-02-26T22:25:38.442Z,9.05
2018-02-26T22:28:07.892Z,8.52
2018-02-26T22:30:36.749Z,9.38
2018-02-26T22:33:04.743Z,8.10
2018-02-26T22:35:33.608Z,8.95
2018-02-26T22:38:02.249Z,8.05
2018-02-26T22:40:30.914Z,9.10
2018-02-26T22:42:59.576Z,8.00
2018-02-26T22:45:28.227Z,10.45
2018-02-26T22:47:57.658Z,10.90
2018-02-26T22:50:26.529Z,10.60
2018-02-26T22:52:55.363Z,11.12
2018-02-26T22:55:24.006Z,9.85
2018-02-26T22:57:52.722Z,10.88
2018-02-26T23:00:22.041Z,9.63
2018-02-26T23:02:50.717Z,9.77
2018-02-26T23:05:19.399Z,9.23
2018-02-26T23:07:48.212Z,8.75
2018-02-26T23:10:16.529Z,9.77
2018-02-26T23:12:45.203Z,12.02
2018-02-26T23:15:14.622Z,10.85
2018-02-26T23:17:43.278Z,9.90
2018-02-26T23:20:11.983Z,8.40
2018-02-26T23:22:41.388Z,8.57
2018-02-26T23:25:10.065Z,9.70
2018-02-26T23:27:39.514Z,9.27
2018-02-26T23:30:08.148Z,7.53
2018-02-26T23:32:37.563Z,8.20
2018-02-26T23:35:06.643Z,7.80
2018-02-26T23:37:36.100Z,10.70
2018-02-26T23:40:04.430Z,8.35
2018-02-26T23:42:33.828Z,8.07
2018-02-26T23:45:03.240Z,9.95
2018-02-26T23:47:31.906Z,10.60
2018-02-26T23:50:01.329Z,9.00
2018-02-26T23:52:29.993Z,6.93
2018-02-26T23:54:59.402Z,9.98
2018-02-26T23:57:28.813Z,9.20
2018-02-26T23:59:58.244Z,9.10
